createdAt,value
2022-11-29T00:01:33.972Z,24.60
2022-11-29T00:04:01.443Z,20.33
2022-11-29T00:06:32.733Z,25.33
2022-11-29T00:09:02.399Z,16.40
2022-11-29T00:11:51.337Z,25.55
2022-11-29T00:14:19.592Z,25.75
2022-11-29T00:16:50.897Z,26.02
2022-11-29T00:19:17.596Z,24.98
2022-11-29T00:21:44.377Z,24.73
2022-11-29T00:24:11.178Z,25.30
2022-11-29T00:26:38.247Z,25.83
2022-11-29T00:29:05.037Z,25.13
2022-11-29T00:31:32.879Z,24.55
2022-11-29T00:34:01.601Z,26.92
2022-11-29T00:36:28.851Z,18.08
2022-11-29T00:38:55.587Z,16.25
2022-11-29T00:41:22.303Z,20.45
2022-11-29T00:43:48.952Z,20.50
2022-11-29T00:46:15.753Z,21.27
2022-11-29T00:48:42.407Z,23.92
2022-11-29T00:51:09.300Z,21.80
2022-11-29T00:53:36.999Z,21.83
2022-11-29T00:56:04.841Z,26.52
2022-11-29T00:58:31.752Z,21.95
2022-11-29T01:00:58.431Z,26.63
2022-11-29T01:03:25.343Z,24.90
2022-11-29T01:05:52.304Z,23.83
2022-11-29T01:08:19.294Z,22.67
2022-11-29T01:10:46.044Z,23.50
2022-11-29T01:13:14.041Z,20.48
2022-11-29T01:15:41.603Z,24.27
2022-11-29T01:18:08.182Z,21.42
2022-11-29T01:20:34.800Z,21.60
2022-11-29T01:23:01.493Z,20.08
2022-11-29T01:25:29.372Z,21.67
2022-11-29T01:27:56.001Z,21.80
2022-11-29T01:30:22.676Z,19.42
2022-11-29T01:32:49.408Z,18.88
2022-11-29T01:35:16.139Z,20.73
2022-11-29T01:37:42.764Z,21.45
2022-11-29T01:40:09.741Z,30.02
2022-11-29T01:42:36.290Z,22.80
2022-11-29T01:45:08.585Z,18.63
2022-11-29T01:47:45.849Z,24.05
2022-11-29T01:50:13.290Z,20.90
2022-11-29T01:52:40.635Z,20.50
2022-11-29T01:55:09.872Z,20.90
2022-11-29T01:57:39.973Z,21.17
2022-11-29T02:00:16.115Z,18.48
2022-11-29T02:02:52.050Z,18.95
2022-11-29T02:05:20.185Z,17.27
2022-11-29T02:07:50.599Z,19.70
2022-11-29T02:10:18.340Z,18.25
2022-11-29T02:13:08.037Z,17.55
2022-11-29T02:15:46.331Z,17.92
2022-11-29T02:18:19.465Z,17.10
2022-11-29T02:21:07.358Z,19.48
2022-11-29T02:23:58.296Z,19.77
2022-11-29T02:26:49.055Z,22.90
2022-11-29T02:29:43.441Z,19.38
2022-11-29T02:32:41.242Z,17.33
2022-11-29T02:35:13.846Z,17.70
2022-11-29T02:37:58.818Z,18.08
2022-11-29T02:40:34.740Z,24.58
2022-11-29T02:43:19.272Z,18.75
2022-11-29T02:46:04.728Z,18.05
2022-11-29T02:48:53.837Z,16.95
2022-11-29T02:51:32.962Z,17.60
2022-11-29T02:54:21.251Z,20.13
2022-11-29T02:57:00.207Z,18.52
2022-11-29T02:59:41.718Z,19.38
2022-11-29T03:02:35.803Z,16.30
2022-11-29T03:05:28.482Z,15.77
2022-11-29T03:08:10.192Z,18.17
2022-11-29T03:10:49.042Z,19.60
2022-11-29T03:13:41.794Z,17.33
2022-11-29T03:16:43.084Z,14.85
2022-11-29T03:19:19.406Z,18.48
2022-11-29T03:21:59.591Z,16.55
2022-11-29T03:24:40.803Z,22.52
2022-11-29T03:27:13.619Z,17.67
2022-11-29T03:29:51.330Z,20.65
2022-11-29T03:32:35.395Z,17.38
2022-11-29T03:35:13.472Z,19.95
2022-11-29T03:37:59.828Z,17.50
2022-11-29T03:40:52.377Z,27.88
2022-11-29T03:43:30.808Z,18.92
2022-11-29T03:46:11.232Z,20.92
2022-11-29T03:48:48.332Z,22.10
2022-11-29T03:51:38.901Z,22.58
2022-11-29T03:54:14.304Z,21.70
2022-11-29T03:56:41.885Z,16.92
2022-11-29T03:59:20.129Z,17.85
2022-11-29T04:02:24.257Z,16.13
2022-11-29T04:05:09.218Z,20.75
2022-11-29T04:08:14.524Z,21.33
2022-11-29T04:10:56.278Z,22.00
2022-11-29T04:13:44.594Z,24.15
2022-11-29T04:16:48.042Z,22.20
2022-11-29T04:19:43.927Z,17.65
2022-11-29T04:22:16.460Z,22.30
2022-11-29T04:25:01.187Z,21.15
2022-11-29T04:27:41.563Z,23.77
2022-11-29T04:30:20.515Z,27.67
2022-11-29T04:32:59.276Z,22.17
2022-11-29T04:35:56.822Z,21.38
2022-11-29T04:38:42.341Z,16.60
2022-11-29T04:41:36.697Z,16.20
2022-11-29T04:44:24.939Z,18.17
2022-11-29T04:47:00.678Z,21.60
2022-11-29T04:49:36.081Z,21.48
2022-11-29T04:52:24.887Z,20.85
2022-11-29T04:55:26.162Z,20.35
2022-11-29T04:58:04.890Z,17.52
2022-11-29T05:00:39.327Z,17.40
2022-11-29T05:05:59.140Z,26.15
2022-11-29T05:08:37.603Z,18.40
2022-11-29T05:11:26.363Z,18.98
2022-11-29T05:14:02.422Z,22.15
2022-11-29T05:16:32.459Z,19.45
2022-11-29T05:19:20.586Z,18.02
2022-11-29T05:21:52.250Z,14.70
2022-11-29T05:24:47.936Z,18.27
2022-11-29T05:27:17.353Z,20.48
2022-11-29T05:30:15.301Z,21.45
2022-11-29T05:32:44.972Z,24.27
2022-11-29T05:35:40.865Z,23.42
2022-11-29T05:38:14.262Z,22.48
2022-11-29T05:41:08.855Z,23.60
2022-11-29T05:43:46.731Z,22.00
2022-11-29T05:46:28.873Z,20.25
2022-11-29T05:49:10.759Z,23.65
2022-11-29T05:52:01.160Z,23.77
2022-11-29T05:54:34.434Z,23.88
2022-11-29T05:57:33.871Z,23.80
2022-11-29T06:00:03.219Z,21.45
2022-11-29T06:02:48.536Z,22.05
2022-11-29T06:05:28.781Z,18.25
2022-11-29T06:07:55.390Z,19.60
2022-11-29T06:10:30.015Z,17.80
2022-11-29T06:13:11.526Z,19.40
2022-11-29T06:16:08.043Z,22.38
2022-11-29T06:18:56.527Z,22.00
2022-11-29T06:21:41.958Z,26.63
2022-11-29T06:24:27.052Z,17.20
2022-11-29T06:27:05.409Z,18.92
2022-11-29T06:29:56.596Z,16.92
2022-11-29T06:32:29.169Z,26.20
2022-11-29T06:35:05.726Z,25.38
2022-11-29T06:37:42.998Z,23.05
2022-11-29T06:40:12.943Z,22.00
2022-11-29T06:42:39.575Z,22.95
2022-11-29T06:45:07.109Z,23.42
2022-11-29T06:47:46.958Z,16.17
2022-11-29T06:50:29.526Z,24.00
2022-11-29T06:53:10.249Z,31.35
2022-11-29T06:55:52.613Z,26.65
2022-11-29T06:58:50.999Z,23.65
2022-11-29T07:01:53.914Z,21.55
2022-11-29T07:04:46.802Z,22.48
2022-11-29T07:07:18.514Z,22.90
2022-11-29T07:09:47.353Z,19.50
2022-11-29T07:12:14.720Z,22.05
2022-11-29T07:14:41.625Z,27.27
2022-11-29T07:17:27.566Z,30.60
2022-11-29T07:20:01.623Z,27.75
2022-11-29T07:22:46.390Z,22.85
2022-11-29T07:25:42.203Z,22.65
2022-11-29T07:28:47.061Z,24.95
2022-11-29T07:31:28.797Z,21.92
2022-11-29T07:34:37.057Z,25.50
2022-11-29T07:37:30.966Z,29.33
2022-11-29T07:40:03.514Z,29.55
2022-11-29T07:43:01.137Z,37.30
2022-11-29T07:45:29.970Z,32.95
2022-11-29T07:48:05.645Z,37.72
2022-11-29T07:50:32.331Z,32.08
2022-11-29T07:52:59.809Z,38.17
2022-11-29T07:55:27.179Z,34.10
2022-11-29T07:57:53.929Z,34.22
2022-11-29T08:00:21.604Z,38.95
2022-11-29T08:02:50.083Z,37.08
2022-11-29T08:05:17.363Z,41.17
2022-11-29T08:07:44.175Z,37.58
2022-11-29T08:10:14.821Z,32.53
2022-11-29T08:12:50.326Z,28.88
2022-11-29T08:15:21.304Z,30.33
2022-11-29T08:17:48.381Z,18.73
2022-11-29T08:20:16.711Z,21.30
2022-11-29T08:22:43.571Z,21.80
2022-11-29T08:25:10.885Z,27.70
2022-11-29T08:27:38.764Z,13.80
2022-11-29T08:30:06.893Z,17.85
2022-11-29T08:32:34.173Z,19.38
2022-11-29T08:35:00.879Z,19.35
2022-11-29T08:37:27.460Z,22.33
2022-11-29T08:39:55.344Z,30.48
2022-11-29T08:42:21.984Z,26.48
2022-11-29T08:44:48.690Z,19.55
2022-11-29T08:47:33.604Z,22.67
2022-11-29T08:52:48.452Z,17.17
2022-11-29T08:55:15.931Z,14.23
2022-11-29T08:57:42.752Z,20.98
2022-11-29T09:00:10.455Z,23.50
2022-11-29T09:02:37.707Z,26.67
2022-11-29T09:05:05.936Z,25.00
2022-11-29T09:07:32.938Z,25.00
2022-11-29T09:10:04.969Z,26.52
2022-11-29T09:12:32.820Z,25.75
2022-11-29T09:14:59.825Z,20.02
2022-11-29T09:17:27.016Z,22.00
2022-11-29T09:19:53.737Z,23.20
2022-11-29T09:22:20.589Z,21.80
2022-11-29T09:24:47.576Z,20.58
2022-11-29T09:27:14.633Z,18.52
2022-11-29T09:29:41.281Z,18.33
2022-11-29T09:32:08.009Z,19.05
2022-11-29T09:34:34.700Z,15.95
2022-11-29T09:37:01.494Z,20.35
2022-11-29T09:39:30.531Z,21.63
2022-11-29T09:42:27.525Z,18.20
2022-11-29T09:45:13.031Z,16.52
2022-11-29T09:47:58.087Z,15.60
2022-11-29T09:50:57.684Z,16.25
2022-11-29T09:53:30.438Z,15.85
2022-11-29T09:56:05.950Z,15.10
2022-11-29T09:58:41.168Z,16.85
2022-11-29T10:01:13.179Z,15.93
2022-11-29T10:03:48.597Z,14.52
2022-11-29T10:06:26.796Z,19.65
2022-11-29T10:09:06.005Z,24.23
2022-11-29T10:11:44.022Z,20.25
2022-11-29T10:14:20.382Z,34.85
2022-11-29T10:17:04.186Z,17.73
2022-11-29T10:19:48.143Z,13.88
2022-11-29T10:22:59.369Z,21.00
2022-11-29T10:25:45.570Z,13.65
2022-11-29T10:28:33.629Z,14.10
2022-11-29T10:31:37.059Z,36.85
2022-11-29T10:34:13.647Z,21.00
2022-11-29T10:36:52.921Z,17.27
2022-11-29T10:39:45.299Z,17.98
2022-11-29T10:42:39.090Z,16.73
2022-11-29T10:45:18.186Z,15.43
2022-11-29T10:47:47.658Z,12.43
2022-11-29T10:50:21.544Z,14.63
2022-11-29T10:52:48.230Z,13.90
2022-11-29T10:55:17.806Z,20.58
2022-11-29T10:58:12.597Z,18.67
2022-11-29T11:00:46.929Z,18.00
2022-11-29T11:03:25.863Z,13.95
2022-11-29T11:06:19.937Z,15.35
2022-11-29T11:08:55.834Z,16.77
2022-11-29T11:11:31.584Z,27.92
2022-11-29T11:14:32.082Z,14.45
2022-11-29T11:17:32.861Z,10.00
2022-11-29T11:20:08.432Z,10.40
2022-11-29T11:22:39.929Z,15.10
2022-11-29T11:25:25.245Z,13.20
2022-11-29T11:27:52.052Z,9.38
2022-11-29T11:30:24.005Z,8.40
2022-11-29T11:33:16.427Z,8.35
2022-11-29T11:35:43.085Z,13.70
2022-11-29T11:38:17.855Z,16.15
2022-11-29T11:40:45.252Z,9.40
2022-11-29T11:43:30.684Z,10.52
2022-11-29T11:45:57.377Z,9.95
2022-11-29T11:48:24.575Z,8.88
2022-11-29T11:50:52.954Z,11.07
2022-11-29T11:53:25.023Z,10.38
2022-11-29T11:56:01.516Z,7.68
2022-11-29T11:58:56.944Z,8.57
2022-11-29T12:01:23.548Z,8.05
2022-11-29T12:04:25.458Z,9.93
2022-11-29T12:07:00.140Z,9.57
2022-11-29T12:09:48.548Z,7.55
2022-11-29T12:12:25.767Z,7.40
2022-11-29T12:14:58.558Z,9.30
2022-11-29T12:17:31.542Z,10.02
2022-11-29T12:20:16.618Z,5.72
2022-11-29T12:23:12.347Z,9.68
2022-11-29T12:25:49.331Z,12.60
2022-11-29T12:28:20.805Z,9.38
2022-11-29T12:31:05.973Z,12.55
2022-11-29T12:33:46.519Z,9.88
2022-11-29T12:36:58.283Z,9.55
2022-11-29T12:39:25.602Z,7.32
2022-11-29T12:42:03.528Z,8.43
2022-11-29T12:44:36.652Z,8.23
2022-11-29T12:50:28.914Z,8.68
2022-11-29T12:53:07.845Z,7.35
2022-11-29T12:56:00.759Z,5.38
2022-11-29T12:58:45.977Z,5.78
2022-11-29T13:01:29.624Z,5.78
2022-11-29T13:04:07.580Z,6.38
2022-11-29T13:06:43.870Z,7.40
2022-11-29T13:09:25.314Z,9.05
2022-11-29T13:12:18.261Z,9.27
2022-11-29T13:15:03.166Z,10.05
2022-11-29T13:17:57.051Z,7.72
2022-11-29T13:20:52.900Z,7.82
2022-11-29T13:26:37.920Z,6.68
2022-11-29T13:29:07.018Z,8.60
2022-11-29T13:31:37.652Z,5.75
2022-11-29T13:34:15.915Z,5.60
2022-11-29T13:37:06.147Z,8.13
2022-11-29T13:39:40.878Z,8.85
2022-11-29T13:42:21.252Z,8.45
2022-11-29T13:45:03.002Z,8.00
2022-11-29T13:47:29.757Z,8.63
2022-11-29T13:49:57.123Z,9.48
2022-11-29T13:52:28.485Z,8.02
2022-11-29T13:55:14.697Z,7.63
2022-11-29T13:58:14.840Z,7.13
2022-11-29T14:00:43.978Z,8.40
2022-11-29T14:03:28.660Z,13.27
2022-11-29T14:06:14.914Z,9.77
2022-11-29T14:11:43.015Z,5.90
2022-11-29T14:14:22.621Z,8.52
2022-11-29T14:17:02.073Z,7.75
2022-11-29T14:19:36.130Z,16.42
2022-11-29T14:22:02.898Z,16.83
2022-11-29T14:24:32.493Z,24.45
2022-11-29T14:27:09.045Z,17.00
2022-11-29T14:29:51.858Z,10.63
2022-11-29T14:32:26.702Z,8.80
2022-11-29T14:35:10.504Z,6.55
2022-11-29T14:38:01.967Z,6.18
2022-11-29T14:40:44.270Z,7.82
2022-11-29T14:43:33.096Z,12.50
2022-11-29T14:46:29.061Z,11.95
2022-11-29T14:48:56.141Z,15.30
2022-11-29T14:51:29.899Z,11.80
2022-11-29T14:54:39.201Z,11.10
2022-11-29T14:57:43.516Z,9.75
2022-11-29T15:00:12.710Z,13.65
2022-11-29T15:02:47.907Z,15.63
2022-11-29T15:05:21.654Z,18.05
2022-11-29T15:08:14.493Z,19.08
2022-11-29T15:10:50.153Z,17.38
2022-11-29T15:13:24.597Z,16.65
2022-11-29T15:19:08.415Z,11.25
2022-11-29T15:21:49.610Z,8.55
2022-11-29T15:24:17.306Z,4.85
2022-11-29T15:27:04.013Z,5.10
2022-11-29T15:29:31.661Z,6.35
2022-11-29T15:32:01.709Z,8.18
2022-11-29T15:34:50.739Z,15.77
2022-11-29T15:37:23.570Z,8.77
2022-11-29T15:40:05.005Z,11.52
2022-11-29T15:42:43.617Z,8.10
2022-11-29T15:45:29.145Z,10.18
2022-11-29T15:48:29.945Z,7.38
2022-11-29T15:51:28.171Z,10.43
2022-11-29T15:54:12.062Z,12.98
2022-11-29T15:59:22.011Z,12.00
2022-11-29T16:01:52.434Z,10.50
2022-11-29T16:04:21.643Z,12.07
2022-11-29T16:06:49.822Z,11.18
2022-11-29T16:09:27.020Z,9.45
2022-11-29T16:11:53.814Z,16.80
2022-11-29T16:14:28.426Z,18.27
2022-11-29T16:16:58.211Z,10.68
2022-11-29T16:19:37.042Z,11.25
2022-11-29T16:22:12.527Z,12.68
2022-11-29T16:24:58.103Z,12.90
2022-11-29T16:27:25.001Z,12.30
2022-11-29T16:29:55.104Z,10.77
2022-11-29T16:32:26.924Z,15.98
2022-11-29T16:34:54.561Z,14.18
2022-11-29T16:37:26.833Z,37.47
2022-11-29T16:39:59.354Z,41.15
2022-11-29T16:42:28.616Z,41.90
2022-11-29T16:45:02.086Z,47.53
2022-11-29T16:47:58.904Z,52.22
2022-11-29T16:50:30.832Z,53.78
2022-11-29T16:53:32.421Z,53.00
2022-11-29T16:56:01.062Z,47.13
2022-11-29T16:58:28.213Z,42.50
2022-11-29T17:00:55.571Z,43.03
2022-11-29T17:03:22.618Z,32.47
2022-11-29T17:05:49.973Z,22.23
2022-11-29T17:08:16.627Z,32.60
2022-11-29T17:10:43.243Z,47.88
2022-11-29T17:13:11.514Z,34.90
2022-11-29T17:15:38.219Z,35.38
2022-11-29T17:18:04.950Z,33.20
2022-11-29T17:20:31.559Z,35.17
2022-11-29T17:22:58.119Z,34.03
2022-11-29T17:25:24.780Z,34.55
2022-11-29T17:28:00.907Z,28.20
2022-11-29T17:30:32.740Z,22.17
2022-11-29T17:32:59.521Z,18.90
2022-11-29T17:35:26.137Z,19.00
2022-11-29T17:37:52.745Z,11.98
2022-11-29T17:40:20.425Z,10.50
2022-11-29T17:42:48.562Z,16.75
2022-11-29T17:45:15.240Z,40.63
2022-11-29T17:47:44.700Z,40.08
2022-11-29T17:50:11.741Z,29.75
2022-11-29T17:52:39.263Z,27.85
2022-11-29T17:55:06.456Z,30.83
2022-11-29T17:57:33.044Z,31.85
2022-11-29T17:59:59.679Z,26.45
2022-11-29T18:02:26.401Z,30.23
2022-11-29T18:04:55.334Z,29.83
2022-11-29T18:07:21.935Z,39.20
2022-11-29T18:09:49.037Z,47.08
2022-11-29T18:12:15.766Z,39.75
2022-11-29T18:14:42.418Z,37.20
2022-11-29T18:17:09.090Z,42.80
2022-11-29T18:19:35.861Z,42.03
2022-11-29T18:22:03.003Z,46.05
2022-11-29T18:24:29.669Z,52.53
2022-11-29T18:26:56.276Z,52.20
2022-11-29T18:29:23.317Z,44.03
2022-11-29T18:31:50.325Z,37.80
2022-11-29T18:34:17.009Z,34.00
2022-11-29T18:36:46.358Z,30.35
2022-11-29T18:39:18.441Z,31.65
2022-11-29T18:41:48.014Z,29.08
2022-11-29T18:44:17.186Z,30.50
2022-11-29T18:46:45.325Z,23.80
2022-11-29T18:49:14.891Z,28.67
2022-11-29T18:51:44.633Z,25.73
2022-11-29T18:54:12.104Z,28.42
2022-11-29T18:56:38.715Z,26.73
2022-11-29T18:59:12.447Z,30.48
2022-11-29T19:01:43.638Z,29.55
2022-11-29T19:04:13.825Z,27.75
2022-11-29T19:06:40.939Z,32.08
2022-11-29T19:09:15.868Z,30.90
2022-11-29T19:11:42.603Z,31.88
2022-11-29T19:14:12.773Z,39.33
2022-11-29T19:16:42.179Z,33.15
2022-11-29T19:19:09.063Z,54.03
2022-11-29T19:21:36.137Z,56.03
2022-11-29T19:24:05.719Z,58.92
2022-11-29T19:26:33.584Z,42.40
2022-11-29T19:29:01.907Z,38.25
2022-11-29T19:31:28.913Z,38.42
2022-11-29T19:33:56.289Z,40.63
2022-11-29T19:36:28.569Z,39.42
2022-11-29T19:39:01.021Z,41.60
2022-11-29T19:41:30.518Z,49.60
2022-11-29T19:43:59.804Z,38.75
2022-11-29T19:46:31.888Z,35.83
2022-11-29T19:49:00.372Z,35.80
2022-11-29T19:51:28.782Z,42.35
2022-11-29T19:53:57.996Z,49.10
2022-11-29T19:56:25.593Z,38.60
2022-11-29T19:58:52.461Z,40.85
2022-11-29T20:01:22.567Z,45.13
2022-11-29T20:03:49.960Z,40.90
2022-11-29T20:06:18.231Z,39.60
2022-11-29T20:08:45.659Z,36.85
2022-11-29T20:11:15.481Z,39.60
2022-11-29T20:13:44.587Z,39.72
2022-11-29T20:16:14.677Z,38.50
2022-11-29T20:18:50.160Z,70.35
2022-11-29T20:21:31.853Z,44.85
2022-11-29T20:24:07.857Z,39.15
2022-11-29T20:26:37.585Z,41.05
2022-11-29T20:29:05.316Z,38.88
2022-11-29T20:31:34.205Z,52.47
2022-11-29T20:34:01.380Z,44.45
2022-11-29T20:36:40.279Z,42.80
2022-11-29T20:39:18.537Z,45.55
2022-11-29T20:41:51.282Z,45.78
2022-11-29T20:44:33.145Z,53.30
2022-11-29T20:47:00.202Z,49.58
2022-11-29T20:49:27.139Z,31.42
2022-11-29T20:52:04.806Z,31.70
2022-11-29T20:54:31.398Z,35.53
2022-11-29T20:56:58.057Z,36.15
2022-11-29T20:59:24.620Z,35.88
2022-11-29T21:01:51.220Z,29.60
2022-11-29T21:04:23.144Z,28.52
2022-11-29T21:06:50.285Z,31.35
2022-11-29T21:09:16.878Z,33.17
2022-11-29T21:11:43.662Z,31.15
2022-11-29T21:14:10.686Z,34.03
2022-11-29T21:16:37.587Z,40.17
2022-11-29T21:19:04.513Z,32.42
2022-11-29T21:21:31.068Z,30.92
2022-11-29T21:24:00.628Z,37.60
2022-11-29T21:26:50.807Z,32.92
2022-11-29T21:29:19.139Z,34.92
2022-11-29T21:31:48.408Z,32.15
2022-11-29T21:34:15.051Z,33.50
2022-11-29T21:36:42.098Z,34.13
2022-11-29T21:39:13.231Z,36.28
2022-11-29T21:41:39.783Z,23.95
2022-11-29T21:44:07.991Z,32.03
2022-11-29T21:46:35.639Z,31.33
2022-11-29T21:49:02.394Z,35.60
2022-11-29T21:51:29.014Z,34.30
2022-11-29T21:53:55.692Z,36.17
2022-11-29T21:56:22.339Z,33.75
2022-11-29T21:58:48.965Z,33.45
2022-11-29T22:01:19.334Z,31.80
2022-11-29T22:03:46.100Z,31.00
2022-11-29T22:06:20.906Z,28.17
2022-11-29T22:08:48.488Z,27.90
2022-11-29T22:11:30.555Z,34.60
2022-11-29T22:14:15.331Z,34.03
2022-11-29T22:17:01.351Z,29.40
2022-11-29T22:19:33.631Z,33.92
2022-11-29T22:22:05.392Z,36.90
2022-11-29T22:24:34.745Z,39.08
2022-11-29T22:27:01.802Z,29.70
2022-11-29T22:29:28.457Z,29.40
2022-11-29T22:31:56.701Z,34.42
2022-11-29T22:34:25.329Z,36.92
2022-11-29T22:36:51.980Z,33.03
2022-11-29T22:39:18.590Z,38.50
2022-11-29T22:41:50.806Z,35.63
2022-11-29T22:44:20.448Z,46.03
2022-11-29T22:46:47.145Z,38.35
2022-11-29T22:49:13.862Z,47.08
2022-11-29T22:51:40.505Z,32.65
2022-11-29T22:54:09.108Z,32.40
2022-11-29T22:56:38.148Z,31.10
2022-11-29T22:59:05.103Z,31.58
2022-11-29T23:01:33.524Z,34.35
2022-11-29T23:04:03.942Z,28.42
2022-11-29T23:06:34.280Z,31.75
2022-11-29T23:09:07.298Z,32.90
2022-11-29T23:11:34.146Z,26.38
2022-11-29T23:14:00.838Z,41.17
2022-11-29T23:16:29.636Z,22.08
2022-11-29T23:19:00.842Z,32.78
2022-11-29T23:21:31.489Z,33.08
2022-11-29T23:24:02.037Z,33.10
2022-11-29T23:26:40.505Z,32.30
2022-11-29T23:29:09.879Z,28.67
2022-11-29T23:31:36.667Z,24.35
2022-11-29T23:34:04.112Z,27.50
2022-11-29T23:36:30.785Z,27.90
2022-11-29T23:38:57.450Z,28.85
2022-11-29T23:41:24.360Z,25.45
2022-11-29T23:43:50.936Z,32.20
2022-11-29T23:46:23.938Z,27.30
2022-11-29T23:48:51.443Z,30.50
2022-11-29T23:51:19.639Z,23.50
2022-11-29T23:53:46.873Z,27.98
2022-11-29T23:56:15.995Z,28.23
2022-11-29T23:58:44.148Z,27.08
